Time;durP1;ratioP1;P1;durP2;ratioP2;P2;SDS_P1;SDS_P2;PMS_P1;PMS_P2;Temp;Humidity;BMP_temperature;BMP_pressure;BME280_temperature;BME280_humidity;BME280_pressure;Samples;Min_cycle;Max_cycle;Signal;HPM_P1;HPM_P2
2023/02/11 00:00:16;;;;;;;26.50;5.55;;;7.10;99.90;;;;;;4825461;29;20042;-87
2023/02/11 00:02:42;;;;;;;28.55;6.18;;;7.10;99.90;;;;;;4859430;29;20049;-89
2023/02/11 00:05:08;;;;;;;26.65;5.88;;;7.10;99.90;;;;;;4841492;29;20042;-88
2023/02/11 00:07:34;;;;;;;24.77;5.72;;;7.10;99.90;;;;;;4858502;29;20041;-88
2023/02/11 00:10:08;;;;;;;30.38;5.45;;;7.10;99.90;;;;;;4839335;29;20615;-88
2023/02/11 00:12:35;;;;;;;31.17;6.13;;;7.10;99.90;;;;;;4842431;29;20037;-88
2023/02/11 00:15:01;;;;;;;26.77;6.28;;;7.10;99.90;;;;;;4859136;29;20057;-88
2023/02/11 00:17:27;;;;;;;24.50;5.63;;;7.10;99.90;;;;;;4825366;29;20042;-88
2023/02/11 00:19:53;;;;;;;23.33;5.47;;;7.10;99.90;;;;;;4825242;29;20074;-88
2023/02/11 00:22:18;;;;;;;23.58;5.43;;;7.10;99.90;;;;;;4828174;29;20498;-88
2023/02/11 00:24:44;;;;;;;24.63;5.45;;;7.10;99.90;;;;;;4862452;29;20041;-88
2023/02/11 00:27:10;;;;;;;26.08;6.28;;;7.10;99.90;;;;;;4830438;29;20050;-88
2023/02/11 00:29:36;;;;;;;23.67;6.00;;;7.10;99.90;;;;;;4833200;29;20141;-88
2023/02/11 00:32:04;;;;;;;27.45;5.85;;;7.10;99.90;;;;;;4843770;29;20129;-88
2023/02/11 00:34:34;;;;;;;22.13;5.63;;;7.10;99.90;;;;;;4845561;29;20133;-88
2023/02/11 00:37:00;;;;;;;29.45;5.20;;;7.10;99.90;;;;;;4845863;29;20089;-88
2023/02/11 00:39:25;;;;;;;22.88;6.22;;;7.10;99.90;;;;;;4846280;29;20080;-88
2023/02/11 00:41:54;;;;;;;25.35;5.50;;;7.00;99.90;;;;;;4840986;29;20052;-88
2023/02/11 00:44:20;;;;;;;24.92;5.20;;;7.00;99.90;;;;;;4845800;29;20046;-88
2023/02/11 00:46:45;;;;;;;24.42;6.55;;;7.00;99.90;;;;;;4860379;29;20037;-88
2023/02/11 00:49:11;;;;;;;24.23;6.07;;;7.00;99.90;;;;;;4859885;29;20046;-87
2023/02/11 00:51:37;;;;;;;23.00;5.60;;;7.00;99.90;;;;;;4831270;29;20463;-88
2023/02/11 00:54:03;;;;;;;21.52;4.93;;;7.00;99.90;;;;;;4850589;29;20050;-89
2023/02/11 00:56:31;;;;;;;20.98;5.50;;;7.00;99.90;;;;;;4837456;29;20045;-88
2023/02/11 00:58:57;;;;;;;28.48;6.03;;;7.00;99.90;;;;;;4852817;29;20132;-87
2023/02/11 01:01:23;;;;;;;28.83;5.45;;;7.00;99.90;;;;;;4844374;29;20493;-88
2023/02/11 01:03:49;;;;;;;21.85;5.53;;;7.00;99.90;;;;;;4837988;29;20113;-89
2023/02/11 01:06:15;;;;;;;20.25;5.20;;;6.90;99.90;;;;;;4844589;29;20046;-88
2023/02/11 01:08:41;;;;;;;23.10;5.82;;;6.90;99.90;;;;;;4827435;29;20475;-88
2023/02/11 01:11:12;;;;;;;22.65;5.70;;;6.90;99.90;;;;;;4844394;29;20049;-88
2023/02/11 01:13:38;;;;;;;26.02;6.68;;;6.90;99.90;;;;;;4839605;29;20049;-88
2023/02/11 01:16:09;;;;;;;21.95;6.20;;;6.80;99.90;;;;;;4828442;29;20050;-88
2023/02/11 01:18:35;;;;;;;23.25;5.90;;;6.80;99.90;;;;;;4828300;29;20054;-88
2023/02/11 01:21:00;;;;;;;21.55;5.88;;;6.80;99.90;;;;;;4859833;29;20077;-88
2023/02/11 01:23:26;;;;;;;28.60;6.03;;;6.80;99.90;;;;;;4857644;29;20114;-88
2023/02/11 01:25:53;;;;;;;21.00;5.60;;;6.80;99.90;;;;;;4827966;29;20380;-88
2023/02/11 01:28:24;;;;;;;30.65;6.95;;;6.70;99.90;;;;;;4828225;29;20064;-88
2023/02/11 01:30:50;;;;;;;22.75;5.80;;;6.70;99.90;;;;;;4830328;29;20071;-88
2023/02/11 01:33:16;;;;;;;19.88;5.72;;;6.70;99.90;;;;;;4842957;29;20097;-88
2023/02/11 01:35:42;;;;;;;32.40;6.97;;;6.70;99.90;;;;;;4827823;29;20372;-88
2023/02/11 01:38:17;;;;;;;29.98;7.20;;;6.70;99.90;;;;;;4827211;29;20042;-87
2023/02/11 01:40:50;;;;;;;25.98;6.22;;;6.70;99.90;;;;;;4854406;29;20081;-88
2023/02/11 01:43:19;;;;;;;25.88;6.82;;;6.70;99.90;;;;;;4843644;29;20042;-88
2023/02/11 01:45:47;;;;;;;24.73;6.88;;;6.70;99.90;;;;;;4832176;29;20077;-88
2023/02/11 01:48:17;;;;;;;23.75;6.57;;;6.60;99.90;;;;;;4861365;29;20081;-87
2023/02/11 01:50:47;;;;;;;23.83;6.05;;;6.70;99.90;;;;;;4843728;29;20124;-87
2023/02/11 01:58:44;;;;;;;25.15;6.63;;;6.60;99.90;;;;;;4842871;29;20144;-86
2023/02/11 02:01:13;;;;;;;23.83;6.47;;;6.60;99.90;;;;;;4845881;29;20085;-87
2023/02/11 02:03:42;;;;;;;23.95;6.70;;;6.60;99.90;;;;;;4843743;29;20498;-87
2023/02/11 02:06:21;;;;;;;27.98;7.45;;;6.60;99.90;;;;;;4845455;29;20490;-87
2023/02/11 02:08:50;;;;;;;25.23;7.35;;;6.60;99.90;;;;;;4839068;29;20137;-87
2023/02/11 02:11:16;;;;;;;26.50;7.05;;;6.60;99.90;;;;;;4856353;29;20052;-87
2023/02/11 02:13:42;;;;;;;28.77;7.90;;;6.60;99.90;;;;;;4861826;29;20053;-87
2023/02/11 02:16:13;;;;;;;21.88;7.38;;;6.60;99.90;;;;;;4862103;29;20037;-88
2023/02/11 02:19:03;;;;;;;35.42;8.90;;;6.60;99.90;;;;;;4844007;29;20526;-86
2023/02/11 02:22:09;;;;;;;28.55;8.50;;;6.60;99.90;;;;;;4843315;29;20045;-87
2023/02/11 02:24:38;;;;;;;26.83;9.00;;;6.60;99.90;;;;;;4844312;29;20132;-87
2023/02/11 02:27:31;;;;;;;28.38;9.00;;;6.60;99.90;;;;;;4859720;29;20550;-87
2023/02/11 02:30:32;;;;;;;28.10;8.77;;;6.60;99.90;;;;;;4859998;29;20045;-87
2023/02/11 02:33:03;;;;;;;31.38;10.10;;;6.60;99.90;;;;;;4803025;29;20572;-87
2023/02/11 02:35:35;;;;;;;28.35;9.45;;;6.60;99.90;;;;;;4828352;29;20114;-87
2023/02/11 02:38:03;;;;;;;27.65;9.73;;;6.60;99.90;;;;;;4844484;29;20038;-87
2023/02/11 02:40:42;;;;;;;28.13;10.30;;;6.60;99.90;;;;;;4831745;29;20053;-87
2023/02/11 02:43:09;;;;;;;29.73;10.27;;;6.60;99.90;;;;;;4856777;29;20102;-86
2023/02/11 02:45:35;;;;;;;28.50;10.57;;;6.70;99.90;;;;;;4844138;29;20038;-87
2023/02/11 02:48:00;;;;;;;27.90;10.85;;;6.70;99.90;;;;;;4850890;29;20038;-87
2023/02/11 02:50:32;;;;;;;25.80;10.43;;;6.70;99.90;;;;;;4841625;29;20098;-86
2023/02/11 02:53:29;;;;;;;25.77;10.80;;;6.70;99.90;;;;;;4833233;29;20057;-87
2023/02/11 02:56:08;;;;;;;30.60;10.60;;;6.70;99.90;;;;;;4849139;29;20399;-86
2023/02/11 02:58:56;;;;;;;30.55;10.75;;;6.70;99.90;;;;;;4836584;29;20058;-86
2023/02/11 03:01:28;;;;;;;26.70;11.23;;;6.70;99.90;;;;;;4860370;29;20037;-86
2023/02/11 03:04:12;;;;;;;30.98;12.27;;;6.70;99.90;;;;;;4859822;29;20065;-86
2023/02/11 03:06:56;;;;;;;;;;;6.70;99.90;;;;;;4859852;29;20084;-86
2023/02/11 03:09:38;;;;;;;27.95;11.90;;;6.70;99.90;;;;;;4846452;29;19924;-87
2023/02/11 03:12:06;;;;;;;29.45;12.13;;;6.70;99.90;;;;;;4851524;29;20050;-87
2023/02/11 03:14:35;;;;;;;30.40;12.02;;;6.70;99.90;;;;;;4830759;29;20506;-88
2023/02/11 03:17:04;;;;;;;33.60;13.57;;;6.80;99.90;;;;;;4860901;29;20076;-87
2023/02/11 03:19:34;;;;;;;35.03;14.07;;;6.80;99.90;;;;;;4853553;29;20110;-87
2023/02/11 03:22:04;;;;;;;28.13;12.48;;;6.80;99.90;;;;;;4849119;29;20095;-88
2023/02/11 03:24:33;;;;;;;29.90;13.20;;;6.80;99.90;;;;;;4838767;29;20096;-87
2023/02/11 03:27:19;;;;;;;28.73;13.13;;;6.80;99.90;;;;;;4842120;29;20048;-88
2023/02/11 03:30:00;;;;;;;24.92;12.38;;;6.90;99.90;;;;;;4842062;29;20041;-88
2023/02/11 03:32:31;;;;;;;28.52;13.20;;;6.90;99.90;;;;;;4848047;29;20104;-87
2023/02/11 03:34:58;;;;;;;32.60;13.93;;;6.80;99.90;;;;;;4841812;29;20057;-88
2023/02/11 03:37:33;;;;;;;34.58;14.85;;;6.90;99.90;;;;;;4825149;29;20041;-87
2023/02/11 03:40:01;;;;;;;29.08;14.60;;;6.90;99.90;;;;;;4827271;29;20054;-87
2023/02/11 03:42:37;;;;;;;26.20;13.73;;;6.90;99.90;;;;;;4848644;29;20045;-88
2023/02/11 03:45:08;;;;;;;29.95;14.52;;;6.90;99.90;;;;;;4841817;29;20073;-87
2023/02/11 03:47:37;;;;;;;36.85;15.13;;;7.00;99.90;;;;;;4840175;29;20117;-87
2023/02/11 03:50:06;;;;;;;31.17;14.55;;;7.00;99.90;;;;;;4843569;29;20150;-88
2023/02/11 03:52:35;;;;;;;29.00;14.77;;;7.00;99.90;;;;;;4836912;29;20080;-88
2023/02/11 03:55:04;;;;;;;36.60;16.95;;;7.00;99.90;;;;;;4827541;29;20502;-87
2023/02/11 03:57:33;;;;;;;34.42;16.13;;;7.00;99.90;;;;;;4843911;29;20069;-87
2023/02/11 03:59:59;;;;;;;34.67;16.17;;;7.00;99.90;;;;;;4848478;29;20054;-86
2023/02/11 04:02:30;;;;;;;32.10;14.48;;;7.00;99.90;;;;;;4845494;29;20514;-88
2023/02/11 04:04:56;;;;;;;32.15;15.32;;;7.00;99.90;;;;;;4859609;29;20076;-87
2023/02/11 04:07:22;;;;;;;43.20;16.65;;;7.00;99.90;;;;;;4845650;29;20478;-87
2023/02/11 04:09:48;;;;;;;31.10;16.27;;;7.10;99.90;;;;;;4853635;29;20511;-87
2023/02/11 04:12:14;;;;;;;33.88;16.13;;;7.10;99.90;;;;;;4860822;29;20041;-87
2023/02/11 04:14:39;;;;;;;32.03;16.05;;;7.10;99.90;;;;;;4852735;29;20050;-87
2023/02/11 04:17:05;;;;;;;28.65;16.10;;;7.10;99.90;;;;;;4829032;29;20057;-87
2023/02/11 04:19:31;;;;;;;31.90;15.40;;;7.10;99.90;;;;;;4853817;29;20049;-88
2023/02/11 04:21:57;;;;;;;33.63;15.20;;;7.10;99.90;;;;;;4847500;29;20042;-86
2023/02/11 04:24:22;;;;;;;35.25;16.05;;;7.10;99.90;;;;;;4841270;29;20391;-87
2023/02/11 04:26:48;;;;;;;31.10;16.00;;;7.10;99.90;;;;;;4828317;29;20083;-87
2023/02/11 04:29:16;;;;;;;27.92;15.25;;;7.10;99.90;;;;;;4829969;29;20042;-87
2023/02/11 04:31:42;;;;;;;33.20;16.05;;;7.10;99.90;;;;;;4845777;29;20050;-87
2023/02/11 04:34:09;;;;;;;36.88;17.00;;;7.10;99.90;;;;;;4857714;29;20056;-87
2023/02/11 04:36:38;;;;;;;31.13;15.68;;;7.10;99.90;;;;;;4831339;29;20583;-87
2023/02/11 04:39:07;;;;;;;36.95;16.52;;;7.10;99.90;;;;;;4859988;29;20076;-88
2023/02/11 04:41:33;;;;;;;31.52;16.38;;;7.10;99.90;;;;;;4845116;29;20132;-87
2023/02/11 04:43:58;;;;;;;37.80;17.52;;;7.10;99.90;;;;;;4831175;29;20125;-87
2023/02/11 04:46:24;;;;;;;38.90;18.05;;;7.10;99.90;;;;;;4828097;29;20056;-85
2023/02/11 04:48:49;;;;;;;30.85;17.02;;;7.10;99.90;;;;;;4833236;29;20525;-87
2023/02/11 04:51:15;;;;;;;36.55;18.17;;;7.10;99.90;;;;;;4837519;29;20053;-87
2023/02/11 04:53:41;;;;;;;33.35;17.25;;;7.10;99.90;;;;;;4842974;29;20442;-87
2023/02/11 04:56:07;;;;;;;32.85;17.60;;;7.10;99.90;;;;;;4862454;29;20559;-87
2023/02/11 04:58:33;;;;;;;36.33;18.10;;;7.10;99.90;;;;;;4857957;29;20033;-86
2023/02/11 05:01:09;;;;;;;35.40;18.17;;;7.10;99.90;;;;;;4841330;29;20501;-87
2023/02/11 05:03:35;;;;;;;36.45;18.60;;;7.10;99.90;;;;;;4841774;29;20049;-88
2023/02/11 05:06:01;;;;;;;35.47;18.15;;;7.10;99.90;;;;;;4843173;29;20057;-87
2023/02/11 05:08:26;;;;;;;35.83;18.35;;;7.10;99.90;;;;;;4832140;29;20050;-88
2023/02/11 05:10:52;;;;;;;32.78;16.75;;;7.10;99.90;;;;;;4844289;23;20087;-87
2023/02/11 05:13:21;;;;;;;41.97;18.73;;;7.10;99.90;;;;;;4869891;23;20053;-87
2023/02/11 05:15:47;;;;;;;32.95;15.70;;;7.10;99.90;;;;;;4879023;29;20550;-86
2023/02/11 05:18:13;;;;;;;39.00;18.27;;;7.10;99.90;;;;;;4862753;29;20072;-86
2023/02/11 05:20:43;;;;;;;35.72;17.38;;;7.10;99.90;;;;;;4864552;29;20049;-87
2023/02/11 05:23:12;;;;;;;34.90;18.00;;;7.10;99.90;;;;;;4863468;29;20438;-88
2023/02/11 05:25:37;;;;;;;33.10;17.13;;;7.10;99.90;;;;;;4881069;29;20041;-84
2023/02/11 05:38:15;;;;;;;34.33;18.15;;;7.10;99.90;;;;;;4880786;29;20477;-89
2023/02/11 05:40:40;;;;;;;39.10;19.35;;;7.10;99.90;;;;;;4881589;29;20045;-87
2023/02/11 05:43:06;;;;;;;40.72;18.50;;;7.10;99.90;;;;;;4873720;29;20097;-90
2023/02/11 05:45:32;;;;;;;40.70;19.20;;;7.10;99.90;;;;;;4856942;29;20045;-86
2023/02/11 05:47:58;;;;;;;37.28;19.08;;;7.00;99.90;;;;;;4863274;29;20536;-89
2023/02/11 05:50:24;;;;;;;38.60;19.65;;;7.10;99.90;;;;;;4880149;29;20116;-89
2023/02/11 05:52:49;;;;;;;44.40;20.00;;;7.10;99.90;;;;;;4864209;29;20390;-89
2023/02/11 05:55:15;;;;;;;37.22;19.63;;;7.00;99.90;;;;;;4873822;29;20049;-88
2023/02/11 05:57:49;;;;;;;39.97;20.38;;;7.10;99.90;;;;;;4854280;29;20136;-89
2023/02/11 06:00:15;;;;;;;41.33;19.38;;;7.00;99.90;;;;;;4856914;29;20053;-88
2023/02/11 06:02:41;;;;;;;40.13;21.30;;;7.00;99.90;;;;;;4860570;29;20093;-88
2023/02/11 06:05:07;;;;;;;40.95;20.73;;;7.10;99.90;;;;;;4860208;29;20489;-90
2023/02/11 06:07:34;;;;;;;41.08;20.33;;;7.00;99.90;;;;;;4857519;29;20057;-89
2023/02/11 06:10:00;;;;;;;41.00;21.38;;;7.00;99.90;;;;;;4872524;29;20051;-89
2023/02/11 06:12:26;;;;;;;39.72;20.35;;;7.00;99.90;;;;;;4849780;29;20053;-90
2023/02/11 06:14:52;;;;;;;40.33;20.85;;;7.00;99.90;;;;;;4870537;24;20057;-89
2023/02/11 06:17:17;;;;;;;36.58;20.48;;;7.00;99.90;;;;;;4855441;29;20124;-89
2023/02/11 06:19:43;;;;;;;34.30;19.38;;;7.00;99.90;;;;;;4871003;29;20097;-88
2023/02/11 06:22:20;;;;;;;42.58;21.55;;;7.00;99.90;;;;;;4875560;24;20051;-89
2023/02/11 06:24:46;;;;;;;43.55;21.00;;;7.00;99.90;;;;;;4844981;29;20402;-88
2023/02/11 06:27:11;;;;;;;36.67;19.65;;;7.00;99.90;;;;;;4861556;29;20041;-89
2023/02/11 06:29:45;;;;;;;46.17;21.42;;;7.00;99.90;;;;;;4844861;29;20054;-89
2023/02/11 06:32:13;;;;;;;40.88;21.40;;;7.00;99.90;;;;;;4915272;23;20141;-89
2023/02/11 06:34:39;;;;;;;40.95;21.50;;;7.00;99.90;;;;;;4859689;29;20053;-89
2023/02/11 06:37:05;;;;;;;34.88;20.45;;;7.00;99.90;;;;;;4844915;29;20102;-89
2023/02/11 06:39:31;;;;;;;42.35;21.88;;;7.00;99.90;;;;;;4880172;23;20044;-89
2023/02/11 06:41:57;;;;;;;40.08;21.88;;;7.00;99.90;;;;;;4884182;29;20438;-88
2023/02/11 06:44:23;;;;;;;45.75;22.88;;;7.00;99.90;;;;;;4907194;23;20039;-89
2023/02/11 06:46:48;;;;;;;51.83;22.10;;;7.00;99.90;;;;;;4878880;29;20052;-88
2023/02/11 06:49:14;;;;;;;46.70;22.77;;;7.00;99.90;;;;;;4862647;29;20406;-89
2023/02/11 06:51:40;;;;;;;47.13;24.40;;;7.00;99.90;;;;;;4863289;29;20052;-87
2023/02/11 06:54:10;;;;;;;47.00;25.02;;;7.10;99.90;;;;;;4859877;29;20044;-88
2023/02/11 06:56:41;;;;;;;46.15;24.77;;;7.00;99.90;;;;;;4870285;24;20061;-88
2023/02/11 06:59:07;;;;;;;42.72;23.60;;;7.00;99.90;;;;;;4876586;29;20048;-89
2023/02/11 07:01:33;;;;;;;43.00;23.58;;;7.00;99.90;;;;;;4867057;29;20541;-88
2023/02/11 07:03:58;;;;;;;40.05;22.92;;;7.00;99.90;;;;;;4878875;29;20037;-89
2023/02/11 07:06:26;;;;;;;47.70;23.73;;;7.00;99.90;;;;;;4874121;29;20043;-87
2023/02/11 07:08:54;;;;;;;42.38;23.27;;;7.00;99.90;;;;;;4878561;29;20237;-87
2023/02/11 07:11:25;;;;;;;39.83;23.10;;;7.00;99.90;;;;;;4862105;29;20037;-87
2023/02/11 07:13:52;;;;;;;41.17;22.92;;;7.00;99.90;;;;;;4862351;29;20045;-87
2023/02/11 07:16:19;;;;;;;43.22;22.30;;;7.00;99.90;;;;;;4884228;29;20045;-87
2023/02/11 07:18:48;;;;;;;47.67;23.63;;;7.00;99.90;;;;;;4898547;29;20177;-87
2023/02/11 07:21:16;;;;;;;42.90;22.42;;;7.00;99.90;;;;;;4880592;29;20044;-88
2023/02/11 07:23:42;;;;;;;51.28;24.80;;;7.00;99.90;;;;;;4870474;29;20100;-87
2023/02/11 07:26:10;;;;;;;45.85;23.85;;;7.00;99.90;;;;;;4881502;29;20044;-88
2023/02/11 07:28:37;;;;;;;42.55;24.65;;;7.00;99.90;;;;;;4870149;29;20063;-87
2023/02/11 07:31:07;;;;;;;41.63;23.27;;;7.00;99.90;;;;;;4874614;29;20044;-87
2023/02/11 07:33:34;;;;;;;38.90;22.23;;;7.00;99.90;;;;;;4872593;29;20123;-87
2023/02/11 07:36:00;;;;;;;40.70;22.83;;;7.10;99.90;;;;;;4880586;29;20054;-88
2023/02/11 07:38:29;;;;;;;42.92;23.52;;;7.00;99.90;;;;;;4879393;29;20044;-89
2023/02/11 07:40:59;;;;;;;46.83;23.80;;;7.00;99.90;;;;;;4880993;29;20547;-87
2023/02/11 07:43:25;;;;;;;35.83;22.58;;;7.10;99.90;;;;;;4872009;29;20057;-87
2023/02/11 07:45:50;;;;;;;45.35;23.45;;;7.00;99.90;;;;;;4872508;29;20063;-87
2023/02/11 07:48:16;;;;;;;48.17;23.67;;;7.10;99.90;;;;;;4872032;29;20083;-86
2023/02/11 07:50:41;;;;;;;45.88;23.58;;;7.00;99.90;;;;;;4864401;29;20052;-87
2023/02/11 07:53:07;;;;;;;41.67;23.40;;;7.00;99.90;;;;;;4882879;29;20545;-87
2023/02/11 07:55:33;;;;;;;39.58;22.60;;;7.00;99.90;;;;;;4878977;29;20041;-89
2023/02/11 07:58:01;;;;;;;36.28;21.80;;;7.10;99.90;;;;;;4863903;29;20053;-86
2023/02/11 08:00:27;;;;;;;38.42;22.15;;;7.00;99.90;;;;;;4870231;23;20398;-90
2023/02/11 08:03:02;;;;;;;46.47;23.85;;;7.00;99.90;;;;;;4860477;29;20497;-89
2023/02/11 08:05:29;;;;;;;49.03;25.00;;;7.00;99.90;;;;;;4862478;29;20085;-88
2023/02/11 08:07:55;;;;;;;39.88;23.15;;;7.00;99.90;;;;;;4862647;29;20405;-88
2023/02/11 08:10:21;;;;;;;48.92;23.75;;;7.10;99.90;;;;;;4860818;29;20093;-89
2023/02/11 08:12:53;;;;;;;38.58;22.58;;;7.10;99.90;;;;;;4862274;29;20041;-88
2023/02/11 08:15:19;;;;;;;42.83;24.35;;;7.10;99.90;;;;;;4878099;29;20080;-87
2023/02/11 08:17:45;;;;;;;47.58;24.02;;;7.00;99.90;;;;;;4860979;29;20498;-88
2023/02/11 08:20:10;;;;;;;47.45;23.30;;;7.10;99.90;;;;;;4857649;29;20041;-88
2023/02/11 08:22:36;;;;;;;41.38;22.20;;;7.10;99.90;;;;;;4850740;29;20512;-88
2023/02/11 08:25:02;;;;;;;44.42;22.77;;;7.10;99.90;;;;;;4861367;29;20105;-87
2023/02/11 08:27:28;;;;;;;44.22;22.63;;;7.10;99.90;;;;;;4874824;29;20045;-92
2023/02/11 08:29:54;;;;;;;44.88;23.20;;;7.10;99.90;;;;;;4862655;29;20053;-92
2023/02/11 08:32:24;;;;;;;41.53;22.30;;;7.10;99.90;;;;;;4862877;29;20053;-92
2023/02/11 08:34:53;;;;;;;38.17;21.48;;;7.10;99.90;;;;;;4864233;29;20073;-92
2023/02/11 08:37:22;;;;;;;39.33;22.17;;;7.20;99.90;;;;;;4857076;29;20045;-91
2023/02/11 08:39:47;;;;;;;39.08;21.45;;;7.10;99.90;;;;;;4873328;29;20390;-91
2023/02/11 08:42:19;;;;;;;40.60;22.40;;;7.20;99.90;;;;;;4869867;29;20052;-91
2023/02/11 08:45:06;;;;;;;39.40;21.80;;;7.20;99.90;;;;;;4865954;29;20053;-92
2023/02/11 08:47:38;;;;;;;39.17;22.05;;;7.20;99.90;;;;;;4866258;29;20045;-93
2023/02/11 08:50:05;;;;;;;40.45;21.35;;;7.20;99.90;;;;;;4878899;29;20056;-93
2023/02/11 08:52:30;;;;;;;37.20;20.95;;;7.20;99.90;;;;;;4873716;29;20375;-92
2023/02/11 08:54:56;;;;;;;35.92;19.77;;;7.30;99.90;;;;;;4865396;29;20115;-92
2023/02/11 09:07:27;;;;;;;34.60;19.50;;;7.30;99.90;;;;;;4862123;29;20046;-92
2023/02/11 09:10:07;;;;;;;33.53;18.05;;;7.30;99.90;;;;;;4847506;29;20410;-92
2023/02/11 09:12:44;;;;;;;34.42;18.77;;;7.40;99.90;;;;;;4847305;29;20546;-92
2023/02/11 09:15:15;;;;;;;35.92;18.67;;;7.40;99.90;;;;;;4846661;29;20045;-91
2023/02/11 09:17:53;;;;;;;37.47;18.77;;;7.50;99.90;;;;;;4846401;29;20066;-92
2023/02/11 09:20:19;;;;;;;31.88;18.88;;;7.50;99.90;;;;;;4862686;29;20048;-91
2023/02/11 09:22:50;;;;;;;32.88;18.05;;;7.50;99.90;;;;;;4846739;29;20060;-91
2023/02/11 09:25:15;;;;;;;34.67;17.77;;;7.60;99.90;;;;;;4846936;29;20136;-91
2023/02/11 09:27:53;;;;;;;32.80;17.55;;;7.60;99.90;;;;;;4862792;29;20124;-91
2023/02/11 09:30:20;;;;;;;33.60;17.90;;;7.70;99.90;;;;;;4863008;29;20049;-91
2023/02/11 09:33:04;;;;;;;31.77;17.02;;;7.70;99.90;;;;;;4846632;29;20037;-90
2023/02/11 09:38:25;;;;;;;35.00;17.95;;;7.70;99.90;;;;;;4993242;23;20049;-91
2023/02/11 09:44:10;;;;;;;29.20;16.33;;;7.80;99.90;;;;;;4892040;23;20100;-91
2023/02/11 09:56:44;;;;;;;28.38;14.45;;;7.90;99.90;;;;;;4880892;29;20374;-91
2023/02/11 09:59:19;;;;;;;30.08;14.82;;;8.00;99.90;;;;;;4865139;29;20486;-92
2023/02/11 10:02:45;;;;;;;31.10;14.30;;;8.00;99.90;;;;;;4865414;29;20052;-91
2023/02/11 10:05:54;;;;;;;24.50;13.13;;;8.10;99.90;;;;;;4769250;30;20099;-92
2023/02/11 10:12:48;;;;;;;24.95;12.70;;;8.20;99.90;;;;;;4805886;29;20145;-91
2023/02/11 10:16:11;;;;;;;24.50;12.98;;;8.20;99.90;;;;;;4802019;29;20068;-91
2023/02/11 10:19:39;;;;;;;25.48;12.55;;;8.20;99.90;;;;;;4892845;23;20049;-91
2023/02/11 10:22:54;;;;;;;24.17;13.07;;;8.30;99.90;;;;;;4864595;29;20049;-91
2023/02/11 10:25:51;;;;;;;;;;;8.30;99.90;;;;;;4862308;29;20052;-91
2023/02/11 10:32:54;;;;;;;22.67;10.73;;;8.40;99.90;;;;;;5182706;23;20057;-91
2023/02/11 10:35:29;;;;;;;22.65;11.65;;;8.50;99.90;;;;;;4758331;30;20081;-90
2023/02/11 10:37:55;;;;;;;19.80;10.75;;;8.50;99.90;;;;;;4842877;29;20057;-92
2023/02/11 10:40:44;;;;;;;21.98;10.80;;;8.50;99.90;;;;;;4845573;29;20056;-91
2023/02/11 10:43:16;;;;;;;23.08;10.07;;;8.60;99.90;;;;;;4872904;23;20055;-92
2023/02/11 10:45:50;;;;;;;25.05;10.25;;;8.60;99.90;;;;;;4864994;29;20057;-91
2023/02/11 10:48:39;;;;;;;20.08;10.18;;;8.60;99.90;;;;;;4881448;29;20045;-90
2023/02/11 10:51:25;;;;;;;18.98;9.18;;;8.70;99.90;;;;;;4871369;29;20041;-91
2023/02/11 10:54:03;;;;;;;17.98;9.63;;;8.70;99.90;;;;;;4874462;29;20052;-91
2023/02/11 10:56:38;;;;;;;19.60;9.40;;;8.80;99.90;;;;;;4859084;29;20056;-92
2023/02/11 10:59:31;;;;;;;18.20;8.88;;;8.80;99.90;;;;;;4863676;29;20080;-92
2023/02/11 11:02:00;;;;;;;21.55;9.25;;;8.80;99.90;;;;;;4862968;29;20053;-90
2023/02/11 11:04:35;;;;;;;18.80;8.75;;;8.80;99.90;;;;;;4878499;29;20057;-91
2023/02/11 11:07:21;;;;;;;17.40;8.75;;;8.80;99.90;;;;;;4859913;29;20514;-90
2023/02/11 11:10:03;;;;;;;19.95;8.85;;;8.90;99.90;;;;;;4871354;29;20041;-89
2023/02/11 11:12:43;;;;;;;23.63;8.40;;;8.90;99.90;;;;;;4868841;29;20504;-90
2023/02/11 11:15:09;;;;;;;23.20;8.20;;;8.90;99.90;;;;;;4871981;29;20049;-91
2023/02/11 11:17:35;;;;;;;18.67;7.93;;;8.90;99.90;;;;;;4855990;29;20454;-90
2023/02/11 11:20:23;;;;;;;23.65;8.60;;;9.00;99.90;;;;;;4853328;29;20073;-90
2023/02/11 11:23:08;;;;;;;20.95;7.53;;;9.00;99.90;;;;;;4871088;29;20397;-91
2023/02/11 11:25:36;;;;;;;21.05;8.00;;;9.00;99.90;;;;;;4872879;29;20045;-91
2023/02/11 11:28:02;;;;;;;18.38;7.35;;;9.00;99.90;;;;;;4877725;29;20041;-91
2023/02/11 11:30:37;;;;;;;19.30;7.05;;;9.10;99.90;;;;;;4879037;29;20137;-91
2023/02/11 11:33:04;;;;;;;18.13;7.20;;;9.10;99.90;;;;;;4863130;29;20104;-91
2023/02/11 11:35:33;;;;;;;23.80;7.80;;;9.10;99.90;;;;;;4862404;29;20052;-92
2023/02/11 11:38:02;;;;;;;17.60;7.10;;;9.20;99.90;;;;;;4880676;29;20045;-92
2023/02/11 11:40:35;;;;;;;17.52;6.60;;;9.20;99.90;;;;;;4879900;29;20044;-92
2023/02/11 11:43:03;;;;;;;13.75;6.65;;;9.20;99.90;;;;;;4863579;29;20113;-95
2023/02/11 11:45:29;;;;;;;17.63;6.40;;;9.20;99.90;;;;;;4863187;29;20141;-92
2023/02/11 11:48:11;;;;;;;20.48;6.47;;;9.30;99.90;;;;;;4859573;29;20476;-91
2023/02/11 11:50:48;;;;;;;19.77;6.55;;;9.30;99.90;;;;;;4866213;29;20045;-92
2023/02/11 11:53:33;;;;;;;17.80;5.97;;;9.30;99.90;;;;;;4865448;29;20053;-93
2023/02/11 11:56:29;;;;;;;20.05;6.22;;;9.30;99.90;;;;;;4879799;29;20537;-90
2023/02/11 11:58:55;;;;;;;21.05;6.30;;;9.30;99.90;;;;;;4855309;29;20057;-94
2023/02/11 12:02:08;;;;;;;20.08;6.25;;;9.40;99.90;;;;;;4874455;29;20128;-96
2023/02/11 12:05:16;;;;;;;18.65;5.90;;;9.40;99.90;;;;;;5159349;23;20049;-94
2023/02/11 12:07:56;;;;;;;18.45;4.85;;;9.40;99.90;;;;;;4882786;29;20176;-94
2023/02/11 12:14:40;;;;;;;16.50;5.18;;;9.40;99.90;;;;;;4845057;29;20057;-95
2023/02/11 12:17:43;;;;;;;16.88;4.70;;;9.50;99.90;;;;;;4842174;29;20089;-94
2023/02/11 12:20:39;;;;;;;17.15;5.28;;;9.50;99.90;;;;;;4854909;29;20132;-94
2023/02/11 12:23:29;;;;;;;17.45;5.03;;;9.50;99.90;;;;;;4861181;29;20057;-95
2023/02/11 12:26:21;;;;;;;14.68;4.65;;;9.50;99.90;;;;;;4883760;29;20081;-95
2023/02/11 12:29:18;;;;;;;15.07;4.03;;;9.50;99.90;;;;;;4885282;29;20105;-95
2023/02/11 12:32:20;;;;;;;15.77;4.13;;;9.60;99.90;;;;;;4869295;29;20101;-95
2023/02/11 12:35:10;;;;;;;15.60;4.13;;;9.60;99.90;;;;;;4879298;29;20049;-93
2023/02/11 12:37:51;;;;;;;17.00;3.92;;;9.60;99.90;;;;;;4887566;23;20053;-93
2023/02/11 12:40:43;;;;;;;17.40;4.22;;;9.70;99.90;;;;;;4918733;23;20136;-92
2023/02/11 12:43:15;;;;;;;17.88;3.92;;;9.70;99.90;;;;;;4880097;29;20045;-92
2023/02/11 12:46:31;;;;;;;18.58;4.30;;;9.70;99.90;;;;;;4883581;29;20053;-93
2023/02/11 12:49:23;;;;;;;20.98;4.68;;;9.70;99.90;;;;;;4880235;29;20120;-93
2023/02/11 12:55:02;;;;;;;21.95;4.20;;;9.80;99.90;;;;;;4883873;23;20430;-90
2023/02/11 12:57:34;;;;;;;14.05;3.65;;;9.80;99.90;;;;;;4862176;29;20101;-92
2023/02/11 13:00:16;;;;;;;19.17;3.65;;;9.80;99.90;;;;;;4880552;29;20061;-92
2023/02/11 13:03:08;;;;;;;18.10;4.03;;;9.80;99.90;;;;;;4865255;29;20105;-91
2023/02/11 13:05:42;;;;;;;15.00;3.72;;;9.80;99.90;;;;;;4862296;29;20060;-91
2023/02/11 13:08:17;;;;;;;16.10;3.90;;;9.80;99.90;;;;;;4880971;29;20060;-90
2023/02/11 13:10:49;;;;;;;15.15;3.15;;;9.90;99.90;;;;;;4864723;29;20037;-91
2023/02/11 13:13:34;;;;;;;17.83;3.53;;;9.90;99.90;;;;;;4863536;29;20045;-91
2023/02/11 13:16:06;;;;;;;18.05;3.22;;;9.90;99.90;;;;;;4862732;29;20040;-91
2023/02/11 13:18:39;;;;;;;16.13;3.35;;;9.90;99.90;;;;;;4863050;29;20188;-91
2023/02/11 13:21:14;;;;;;;21.25;3.70;;;10.00;99.90;;;;;;4865056;29;20041;-90
2023/02/11 13:24:08;;;;;;;20.23;3.83;;;10.00;99.90;;;;;;4857702;29;20057;-89
2023/02/11 13:27:04;;;;;;;18.65;3.92;;;10.00;99.90;;;;;;4871461;23;20523;-91
2023/02/11 13:30:17;;;;;;;15.52;3.45;;;10.00;99.90;;;;;;4878807;29;20074;-93
2023/02/11 13:33:05;;;;;;;22.02;4.05;;;10.00;99.90;;;;;;4876340;29;20059;-91
2023/02/11 13:35:36;;;;;;;14.55;2.83;;;10.10;99.90;;;;;;4877447;29;20053;-91
2023/02/11 13:38:05;;;;;;;18.27;3.17;;;10.10;99.90;;;;;;4858851;29;20126;-91
2023/02/11 13:40:36;;;;;;;14.10;3.45;;;10.10;99.90;;;;;;4845338;29;20053;-91
2023/02/11 13:43:18;;;;;;;13.68;2.97;;;10.20;99.90;;;;;;4865929;29;20481;-92
2023/02/11 13:45:50;;;;;;;15.40;3.17;;;10.10;99.90;;;;;;4881388;29;20569;-91
2023/02/11 13:48:32;;;;;;;16.52;2.95;;;10.20;99.90;;;;;;4864374;29;20055;-90
2023/02/11 13:51:06;;;;;;;15.93;3.17;;;10.10;99.90;;;;;;4864109;29;20101;-91
2023/02/11 13:53:50;;;;;;;21.92;3.50;;;10.20;99.90;;;;;;4866027;29;20131;-92
2023/02/11 13:56:34;;;;;;;16.50;3.60;;;10.20;99.90;;;;;;4882255;29;20481;-93
2023/02/11 13:59:31;;;;;;;16.65;3.03;;;10.20;99.90;;;;;;4861877;29;20120;-89
2023/02/11 14:15:25;;;;;;;16.25;3.53;;;10.20;99.90;;;;;;4883263;29;20060;-95
2023/02/11 14:17:51;;;;;;;16.00;2.88;;;10.10;99.90;;;;;;4883367;29;20049;-95
2023/02/11 14:20:35;;;;;;;14.93;2.83;;;10.10;99.90;;;;;;4881562;29;20064;-90